Time;durP1;ratioP1;P1;durP2;ratioP2;P2;SDS_P1;SDS_P2;PMS_P1;PMS_P2;Temp;Humidity;BMP_temperature;BMP_pressure;BME280_temperature;BME280_humidity;BME280_pressure;Samples;Min_cycle;Max_cycle;Signal;HPM_P1;HPM_P2
2023/01/03 00:00:14;;;;;;;;;50.67;43.33;;;;;12.08;76.75;-19534.50;4926382;28;47125;-96
2023/01/03 00:02:40;;;;;;;;;49.33;42.67;;;;;11.96;76.52;-19531.41;4912539;28;45695;-94
2023/01/03 00:05:06;;;;;;;;;53.00;45.00;;;;;11.08;76.31;-19508.22;4909332;28;45593;-94
2023/01/03 00:10:58;;;;;;;;;47.00;39.00;;;;;9.92;76.59;-19477.72;4844672;29;45910;-96
2023/01/03 00:13:23;;;;;;;;;50.67;43.00;;;;;10.76;76.54;-19499.88;4835030;29;45582;-94
2023/01/03 00:15:48;;;;;;;;;50.67;42.00;;;;;11.11;76.19;-19508.91;4854775;29;45385;-95
2023/01/03 00:18:14;;;;;;;;;52.00;43.00;;;;;10.67;76.50;-19497.31;4855316;29;45457;-94
2023/01/03 00:21:07;;;;;;;;;52.67;43.67;;;;;11.28;76.46;-19513.47;4839549;29;48083;-96
2023/01/03 00:23:38;;;;;;;;;50.67;43.33;;;;;10.66;76.25;-19497.03;4840922;29;45466;-94
2023/01/03 00:26:11;;;;;;;;;51.00;43.00;;;;;10.71;76.55;-19498.50;4856454;29;45558;-95
2023/01/03 00:28:37;;;;;;;;;51.33;42.67;;;;;9.78;76.20;-19473.81;4851707;29;45349;-96
2023/01/03 00:33:53;;;;;;;;;49.33;41.67;;;;;10.45;76.38;-19491.63;4966572;23;71939;-95
2023/01/03 00:36:43;;;;;;;;;47.67;40.33;;;;;9.85;75.83;-19475.84;4903136;28;45341;-94
2023/01/03 00:39:10;;;;;;;;;51.67;43.67;;;;;11.89;76.34;-19529.38;4881846;28;45652;-93
2023/01/03 00:41:37;;;;;;;;;52.33;44.67;;;;;11.64;76.62;-19522.78;4904233;28;48252;-92
2023/01/03 00:44:02;;;;;;;;;50.00;43.00;;;;;10.63;76.20;-19496.22;4920488;28;45471;-91
2023/01/03 00:46:28;;;;;;;;;52.33;43.67;;;;;12.02;76.38;-19532.88;4908847;28;45419;-93
2023/01/03 00:48:54;;;;;;;;;49.00;42.33;;;;;11.61;76.46;-19522.25;4904875;28;45534;-91
2023/01/03 00:51:26;;;;;;;;;46.67;39.33;;;;;10.93;76.27;-19504.19;4902988;28;47031;-93
2023/01/03 00:53:56;;;;;;;;;49.67;42.33;;;;;11.10;76.52;-19508.63;4923197;28;45381;-93
2023/01/03 00:56:28;;;;;;;;;51.00;43.00;;;;;11.30;76.43;-19513.88;4901768;28;45265;-93
2023/01/03 00:58:53;;;;;;;;;50.00;42.33;;;;;11.27;76.24;-19513.22;4904138;28;45529;-93
2023/01/03 01:01:35;;;;;;;;;54.00;46.00;;;;;11.99;76.25;-19532.09;4903250;28;46865;-94
2023/01/03 01:04:13;;;;;;;;;52.67;44.67;;;;;10.63;76.11;-19496.22;4926233;28;45522;-94
2023/01/03 01:06:53;;;;;;;;;51.00;43.33;;;;;11.72;76.12;-19524.94;4904125;28;45370;-93
2023/01/03 01:09:47;;;;;;;;;47.67;41.33;;;;;9.92;75.99;-19477.59;4904328;28;45462;-93
2023/01/03 01:12:33;;;;;;;;;47.67;40.33;;;;;9.60;76.21;-19469.22;4904327;28;47073;-92
2023/01/03 01:15:04;;;;;;;;;45.67;38.67;;;;;9.58;76.16;-19468.56;4903856;28;45303;-92
2023/01/03 01:23:38;;;;;;;;;47.67;41.33;;;;;10.32;76.57;-19488.13;4918706;28;45332;-93
2023/01/03 01:26:16;;;;;;;;;51.33;44.00;;;;;9.23;76.54;-19459.38;4901883;28;45962;-93
2023/01/03 01:28:54;;;;;;;;;48.33;41.67;;;;;9.38;76.34;-19463.28;4904160;28;45266;-93
2023/01/03 01:31:43;;;;;;;;;50.33;42.67;;;;;9.50;76.42;-19466.66;4918934;28;45310;-94
2023/01/03 01:34:17;;;;;;;;;48.33;42.00;;;;;11.39;76.37;-19516.31;4903357;28;45602;-94
2023/01/03 01:36:44;;;;;;;;;51.67;43.67;;;;;11.73;76.51;-19525.34;4926243;28;45623;-93
2023/01/03 01:39:26;;;;;;;;;52.67;44.33;;;;;9.48;76.61;-19466.13;4902131;28;45255;-94
2023/01/03 01:45:08;;;;;;;;;49.67;42.33;;;;;11.71;76.74;-19524.81;4918012;28;45264;-94
2023/01/03 01:47:51;;;;;;;;;56.00;46.67;;;;;11.73;76.56;-19525.19;4901174;29;45405;-95
2023/01/03 01:54:22;;;;;;;;;;;;;;;;;;;;;
2023/01/03 01:57:05;;;;;;;;;56.50;47.25;;;;;9.79;76.89;-19474.09;4858529;28;75374;-93
2023/01/03 01:59:46;;;;;;;;;;;;;;;;;;;;;
2023/01/03 02:02:26;;;;;;;;;54.00;46.00;;;;;10.97;76.30;-19505.25;4860116;29;70379;-93
2023/01/03 02:05:23;;;;;;;;;;;;;;;;;;;;;
2023/01/03 02:07:55;;;;;;;;;46.67;40.33;;;;;9.63;76.05;-19470.03;4861405;29;75820;-93
2023/01/03 02:11:06;;;;;;;;;54.33;45.67;;;;;11.15;76.36;-19510.13;4850525;29;45879;-94
2023/01/03 02:13:54;;;;;;;;;54.00;44.67;;;;;11.16;76.34;-19510.38;4852859;29;45342;-95
2023/01/03 02:17:34;;;;;;;;;;;;;;;;;;;;;
2023/01/03 02:20:19;;;;;;;;;51.00;43.67;;;;;11.64;76.51;-19522.78;4852140;29;45610;-95
2023/01/03 02:23:31;;;;;;;;;51.67;44.00;;;;;10.22;76.24;-19485.56;4865954;29;45315;-95
2023/01/03 02:26:34;;;;;;;;;54.67;46.00;;;;;11.60;76.42;-19521.97;4862284;29;45444;-93
2023/01/03 02:29:18;;;;;;;;;53.00;45.33;;;;;11.59;76.76;-19521.69;4847687;28;45399;-93
2023/01/03 02:32:34;;;;;;;;;;;;;;;;;;;;;
2023/01/03 02:39:35;;;;;;;;;46.33;40.00;;;;;11.50;76.92;-19519.28;4836932;29;45360;-94
2023/01/03 02:46:04;;;;;;;;;;;;;;;;;;;;;
2023/01/03 02:52:13;;;;;;;;;32.25;31.50;;;;;10.96;77.35;-19505.00;4820049;29;45593;-93
2023/01/03 02:55:04;;;;;;;;;47.00;40.33;;;;;11.50;76.87;-19519.28;4749984;29;45406;-93
2023/01/03 03:37:22;;;;;;;;;;;;;;;;;;;;;
2023/01/03 03:46:30;;;;;;;;;37.25;33.25;;;;;9.17;78.08;-19457.88;4921672;28;45358;-93
2023/01/03 03:51:55;;;;;;;;;31.00;30.25;;;;;10.58;78.38;-19495.00;4921663;28;45774;-91
2023/01/03 03:54:23;;;;;;;;;33.25;32.25;;;;;11.11;78.09;-19508.91;4892681;28;45335;-94
2023/01/03 03:56:58;;;;;;;;;40.25;36.50;;;;;9.83;78.04;-19475.31;4924433;28;45245;-95
2023/01/03 03:59:26;;;;;;;;;41.00;37.00;;;;;11.35;77.81;-19515.38;4895569;28;45366;-96
2023/01/03 04:23:14;;;;;;;;;44.00;38.00;;;;;11.46;78.38;-19518.06;4897650;23;67854;-93
2023/01/03 04:29:36;;;;;;;;;;;;;;;;;;;;;
2023/01/03 04:32:33;;;;;;;;;43.33;38.33;;;;;9.49;78.15;-19466.38;4807135;29;71558;-92
2023/01/03 04:39:47;;;;;;;;;38.50;35.25;;;;;10.38;77.87;-19489.63;4727060;30;45445;-93
2023/01/03 04:46:29;;;;;;;;;;;;;;;;;;;;;
2023/01/03 04:48:55;;;;;;;;;40.33;36.33;;;;;11.16;77.94;-19510.25;4597252;30;67814;-94
2023/01/03 04:51:21;;;;;;;;;39.33;36.00;;;;;10.73;77.96;-19499.06;4585507;30;45746;-95
2023/01/03 04:53:46;;;;;;;;;45.00;38.00;;;;;11.02;78.30;-19506.47;4632727;30;48118;-92
2023/01/03 04:56:11;;;;;;;;;44.67;38.00;;;;;10.98;78.60;-19505.53;4651291;30;45400;-93
2023/01/03 04:58:37;;;;;;;;;35.50;33.25;;;;;10.53;78.83;-19493.66;4655272;30;47263;-93
2023/01/03 05:01:04;;;;;;;;;37.25;33.00;;;;;10.78;78.25;-19500.28;4652201;30;45361;-93
2023/01/03 05:03:30;;;;;;;;;33.50;31.50;;;;;11.34;78.64;-19514.97;4650136;30;46918;-93
2023/01/03 05:06:06;;;;;;;;;26.50;26.50;;;;;10.81;78.88;-19500.94;4666906;30;45651;-93
2023/01/03 05:08:32;;;;;;;;;31.25;30.50;;;;;11.17;78.43;-19510.66;4707184;30;45839;-93
2023/01/03 05:10:58;;;;;;;;;27.75;27.75;;;;;10.85;78.40;-19502.03;4740124;29;45675;-92
2023/01/03 05:13:23;;;;;;;;;24.25;23.00;;;;;11.28;78.56;-19513.34;4753437;29;48581;-94
2023/01/03 05:15:48;;;;;;;;;29.50;26.75;;;;;11.31;78.80;-19514.28;4839258;29;45358;-93
2023/01/03 05:18:14;;;;;;;;;36.00;33.00;;;;;10.12;78.42;-19482.88;4889990;29;45478;-94
2023/01/03 05:26:14;;;;;;;;;38.25;35.00;;;;;10.75;78.54;-19499.59;4922456;28;45591;-94
2023/01/03 05:28:42;;;;;;;;;50.33;42.33;;;;;11.38;78.43;-19516.03;4905893;28;45388;-94
2023/01/03 05:31:07;;;;;;;;;42.33;37.00;;;;;11.37;78.40;-19515.91;4906411;28;45449;-95
2023/01/03 05:33:32;;;;;;;;;37.25;33.75;;;;;11.37;78.48;-19515.78;4900832;28;47478;-94
2023/01/03 05:35:58;;;;;;;;;48.33;40.67;;;;;11.21;78.32;-19511.59;4908872;28;45503;-93
2023/01/03 05:38:23;;;;;;;;;48.33;41.00;;;;;11.14;78.03;-19509.84;4890687;28;45467;-92
2023/01/03 05:40:50;;;;;;;;;43.67;38.67;;;;;11.34;78.34;-19515.09;4905394;28;45492;-94
2023/01/03 05:43:15;;;;;;;;;42.00;37.33;;;;;11.10;77.91;-19508.63;4895687;28;46818;-94
2023/01/03 05:45:41;;;;;;;;;46.33;40.67;;;;;10.70;78.46;-19498.09;4909456;28;46216;-94
2023/01/03 05:48:08;;;;;;;;;42.33;37.00;;;;;11.14;78.17;-19509.72;4904663;28;45403;-94
2023/01/03 05:50:34;;;;;;;;;45.67;40.00;;;;;11.20;78.38;-19511.31;4901169;28;45900;-94
2023/01/03 05:52:59;;;;;;;;;45.67;39.67;;;;;10.91;78.12;-19503.63;4904292;28;47264;-94
2023/01/03 05:55:25;;;;;;;;;45.67;38.67;;;;;11.30;78.08;-19513.88;4891111;28;45400;-93
2023/01/03 05:57:51;;;;;;;;;40.25;36.50;;;;;11.27;77.90;-19513.22;4910733;28;45443;-94
2023/01/03 06:00:17;;;;;;;;;42.33;37.00;;;;;10.55;77.83;-19494.34;4895042;28;45444;-90
2023/01/03 06:02:43;;;;;;;;;43.33;38.33;;;;;11.22;77.92;-19511.88;4895134;28;47395;-90
2023/01/03 06:05:08;;;;;;;;;41.67;37.00;;;;;10.82;77.68;-19501.34;4895240;28;45668;-89
2023/01/03 06:07:36;;;;;;;;;41.00;37.00;;;;;10.10;77.91;-19482.47;4892142;28;45465;-87
2023/01/03 06:10:02;;;;;;;;;43.33;37.00;;;;;11.14;77.97;-19509.84;4911263;28;45593;-88
2023/01/03 06:12:28;;;;;;;;;40.50;36.50;;;;;11.14;77.78;-19509.84;4922941;28;45447;-92
2023/01/03 06:14:54;;;;;;;;;45.33;39.33;;;;;11.14;78.12;-19509.72;4912133;28;45801;-94
2023/01/03 06:20:04;;;;;;;;;39.00;35.67;;;;;10.87;77.85;-19502.69;4897580;28;45275;-93
2023/01/03 06:22:30;;;;;;;;;44.00;37.33;;;;;11.11;77.87;-19508.91;4909945;28;46736;-94
2023/01/03 06:24:55;;;;;;;;;42.75;36.75;;;;;10.44;78.01;-19491.22;4894403;28;45475;-89
2023/01/03 06:27:20;;;;;;;;;46.00;37.67;;;;;10.56;77.64;-19494.59;4914998;28;45666;-89
2023/01/03 06:29:46;;;;;;;;;42.33;37.33;;;;;11.10;77.84;-19508.63;4913491;28;45363;-90
2023/01/03 06:32:11;;;;;;;;;41.33;36.67;;;;;10.93;77.54;-19504.19;4909524;28;45675;-87
2023/01/03 06:34:37;;;;;;;;;36.67;33.33;;;;;10.43;77.54;-19490.97;4895335;28;46000;-86
2023/01/03 06:37:02;;;;;;;;;42.67;37.00;;;;;10.57;77.59;-19494.88;4916413;28;47596;-87
2023/01/03 06:39:27;;;;;;;;;40.67;35.67;;;;;10.06;77.47;-19481.38;4913243;28;45446;-87
2023/01/03 06:41:53;;;;;;;;;37.25;34.50;;;;;10.41;77.45;-19490.56;4916675;28;46157;-87
2023/01/03 06:44:18;;;;;;;;;45.33;39.33;;;;;10.57;77.67;-19494.88;4913033;28;45793;-87
2023/01/03 06:54:59;;;;;;;;;44.33;38.67;;;;;11.09;77.45;-19508.50;4908295;28;45333;-86
2023/01/03 06:57:24;;;;;;;;;41.00;35.67;;;;;10.55;77.36;-19494.34;4908132;28;45572;-86
2023/01/03 06:59:49;;;;;;;;;39.00;35.50;;;;;10.77;77.39;-19500.00;4906099;28;45420;-84
2023/01/03 07:02:15;;;;;;;;;45.00;37.67;;;;;10.90;77.33;-19503.50;4912958;28;45462;-85
2023/01/03 07:04:40;;;;;;;;;46.33;40.00;;;;;10.60;77.39;-19495.53;4915818;28;46691;-85
2023/01/03 07:07:05;;;;;;;;;41.67;37.33;;;;;11.09;77.49;-19508.50;4927831;28;45766;-87
2023/01/03 07:09:31;;;;;;;;;43.25;38.00;;;;;10.61;77.50;-19495.81;4908534;28;45425;-86
2023/01/03 07:11:56;;;;;;;;;44.33;38.67;;;;;11.08;77.79;-19508.09;4915728;28;46460;-86
2023/01/03 07:14:21;;;;;;;;;43.00;37.67;;;;;10.65;78.00;-19496.75;4907772;28;45446;-86
2023/01/03 07:16:48;;;;;;;;;42.00;37.25;;;;;11.09;77.48;-19508.34;4915879;28;45650;-85
2023/01/03 07:19:17;;;;;;;;;42.67;36.67;;;;;11.08;77.61;-19508.22;4900808;28;45543;-86
2023/01/03 07:21:43;;;;;;;;;31.25;29.00;;;;;11.02;77.89;-19506.59;4904168;28;45761;-86
2023/01/03 07:24:12;;;;;;;;;36.75;34.25;;;;;11.09;77.73;-19508.50;4911070;28;45436;-86
2023/01/03 07:26:37;;;;;;;;;27.00;27.00;;;;;10.49;77.52;-19492.59;4901285;28;45449;-86
2023/01/03 07:29:05;;;;;;;;;23.75;22.50;;;;;10.61;77.88;-19495.81;4919354;28;45473;-93
2023/01/03 07:31:31;;;;;;;;;26.25;22.50;;;;;10.56;78.28;-19494.59;4912405;28;46125;-88
2023/01/03 07:33:57;;;;;;;;;23.25;23.25;;;;;11.04;78.14;-19507.00;4914686;28;45316;-88
2023/01/03 07:36:23;;;;;;;;;23.75;22.25;;;;;11.02;78.26;-19506.47;4921579;28;45762;-90
2023/01/03 07:38:49;;;;;;;;;21.00;20.75;;;;;11.03;78.19;-19506.75;4901791;28;45525;-90
2023/01/03 07:41:15;;;;;;;;;22.75;19.75;;;;;11.03;78.11;-19506.75;4908393;28;46596;-87
2023/01/03 07:43:44;;;;;;;;;25.00;23.50;;;;;10.55;78.56;-19494.34;4916030;28;45472;-88
2023/01/03 07:46:14;;;;;;;;;27.75;23.25;;;;;10.35;78.25;-19488.94;4912772;28;45530;-89
2023/01/03 07:48:40;;;;;;;;;31.25;29.75;;;;;10.44;78.09;-19491.38;4920865;28;45577;-89
2023/01/03 07:51:08;;;;;;;;;30.00;29.75;;;;;10.29;78.15;-19487.31;4921603;28;45458;-89
2023/01/03 07:53:34;;;;;;;;;32.75;30.75;;;;;11.08;78.41;-19508.09;4920902;28;45474;-89
2023/01/03 07:56:02;;;;;;;;;26.25;26.25;;;;;11.08;78.25;-19508.22;4903960;28;45352;-89
2023/01/03 07:58:28;;;;;;;;;65.25;54.00;;;;;11.19;78.17;-19511.19;4921496;28;45311;-88
2023/01/03 08:00:53;;;;;;;;;27.50;26.50;;;;;10.82;78.53;-19501.34;4903623;28;47224;-88
2023/01/03 08:03:18;;;;;;;;;29.25;29.00;;;;;10.05;78.17;-19480.97;4920492;28;45359;-88
2023/01/03 08:05:44;;;;;;;;;29.25;28.25;;;;;10.93;78.10;-19504.31;4921012;28;45370;-88
2023/01/03 08:08:09;;;;;;;;;27.50;27.50;;;;;11.03;78.11;-19506.75;4920801;28;45386;-88
2023/01/03 08:13:19;;;;;;;;;26.25;23.50;;;;;11.06;78.04;-19507.69;4920748;28;45657;-89
2023/01/03 08:15:50;;;;;;;;;22.75;22.75;;;;;11.13;78.18;-19509.44;4920900;28;45995;-89
2023/01/03 08:18:19;;;;;;;;;25.75;23.00;;;;;11.27;77.76;-19513.22;4920944;28;45423;-88
2023/01/03 08:20:45;;;;;;;;;29.75;26.25;;;;;11.43;78.06;-19517.25;4920382;28;45654;-88
2023/01/03 08:23:11;;;;;;;;;30.25;30.00;;;;;11.00;77.90;-19506.06;4920653;28;45343;-89
2023/01/03 08:25:36;;;;;;;;;41.75;36.75;;;;;11.35;77.85;-19515.38;4920176;28;45323;-88
2023/01/03 08:28:03;;;;;;;;;46.67;40.33;;;;;10.96;77.58;-19505.00;4917372;28;45473;-89
2023/01/03 08:30:29;;;;;;;;;42.25;37.00;;;;;11.14;77.69;-19509.72;4920417;28;46529;-89
2023/01/03 08:33:00;;;;;;;;;50.33;42.33;;;;;10.72;77.48;-19498.78;4920143;28;45368;-89
2023/01/03 08:35:31;;;;;;;;;48.33;40.33;;;;;10.51;77.26;-19493.25;4900047;28;45574;-89
2023/01/03 08:37:59;;;;;;;;;49.67;42.00;;;;;11.08;77.30;-19508.22;4918378;28;45420;-90
2023/01/03 08:40:25;;;;;;;;;50.33;42.00;;;;;11.21;77.34;-19511.59;4903405;28;46469;-89
2023/01/03 08:42:50;;;;;;;;;47.67;41.00;;;;;11.57;77.40;-19521.03;4918550;28;45339;-89
2023/01/03 08:45:16;;;;;;;;;45.67;39.33;;;;;11.10;77.30;-19508.63;4920660;28;45304;-90
2023/01/03 08:47:42;;;;;;;;;43.75;37.75;;;;;11.23;77.16;-19512.13;4920666;28;45399;-89
2023/01/03 08:50:10;;;;;;;;;46.00;40.33;;;;;10.91;77.04;-19503.78;4920096;28;45428;-89
2023/01/03 08:52:36;;;;;;;;;41.75;35.25;;;;;11.27;77.27;-19513.22;4919430;28;45649;-89
2023/01/03 08:55:02;;;;;;;;;36.75;34.00;;;;;11.70;76.87;-19524.53;4920581;28;45296;-89
2023/01/03 08:57:27;;;;;;;;;30.50;30.00;;;;;11.23;77.02;-19512.13;4918904;28;45513;-89
2023/01/03 08:59:53;;;;;;;;;46.67;40.33;;;;;11.72;76.81;-19524.94;4902914;28;47050;-89
2023/01/03 09:02:18;;;;;;;;;35.00;32.50;;;;;11.55;76.82;-19520.63;4919197;28;45530;-89
2023/01/03 09:04:43;;;;;;;;;36.00;33.50;;;;;11.49;76.83;-19519.00;4920213;28;45403;-89
2023/01/03 09:07:09;;;;;;;;;43.67;38.00;;;;;11.20;76.58;-19511.31;4902551;28;45559;-89
2023/01/03 09:09:34;;;;;;;;;51.00;42.33;;;;;11.84;76.72;-19528.16;4902662;28;48141;-89
2023/01/03 09:11:59;;;;;;;;;48.00;39.67;;;;;11.89;76.74;-19529.38;4919586;28;45776;-89
2023/01/03 09:14:25;;;;;;;;;54.67;46.33;;;;;11.07;76.52;-19507.94;4920247;28;45749;-89
2023/01/03 09:16:50;;;;;;;;;60.25;49.75;;;;;11.38;76.30;-19516.19;4919798;28;45447;-89
2023/01/03 09:19:16;;;;;;;;;60.50;50.25;;;;;11.94;76.33;-19530.88;4899484;28;47602;-89
2023/01/03 09:21:41;;;;;;;;;57.25;47.50;;;;;11.36;76.14;-19515.63;4917900;28;45326;-89
2023/01/03 09:24:08;;;;;;;;;60.75;50.25;;;;;11.57;76.45;-19521.16;4919991;28;45446;-89
2023/01/03 09:26:33;;;;;;;;;62.75;52.00;;;;;11.67;76.12;-19523.72;4899525;28;45557;-89
2023/01/03 09:28:59;;;;;;;;;59.75;49.25;;;;;11.29;76.29;-19513.75;4893852;28;47156;-89
2023/01/03 09:31:24;;;;;;;;;59.75;49.75;;;;;11.40;76.21;-19516.72;4902289;28;45604;-89
2023/01/03 09:33:49;;;;;;;;;59.25;49.50;;;;;12.02;75.90;-19532.88;4915041;28;45518;-88
2023/01/03 09:36:15;;;;;;;;;61.00;50.25;;;;;11.81;76.35;-19527.38;4902327;28;45473;-88
2023/01/03 09:38:40;;;;;;;;;63.75;51.25;;;;;11.89;76.46;-19529.38;4899193;28;48064;-88
2023/01/03 09:41:11;;;;;;;;;62.75;51.50;;;;;12.12;76.45;-19535.44;4915971;28;45479;-88
2023/01/03 09:43:44;;;;;;;;;63.50;52.25;;;;;12.10;76.09;-19534.91;4919654;28;45514;-87
2023/01/03 09:46:20;;;;;;;;;56.75;47.00;;;;;12.05;75.99;-19533.69;4919277;28;45522;-88
2023/01/03 09:48:47;;;;;;;;;57.00;47.50;;;;;11.97;75.99;-19531.69;4920698;28;46272;-88
2023/01/03 10:03:42;;;;;;;;;55.67;46.67;;;;;12.36;75.47;-19541.78;4919469;28;45385;-87
2023/01/03 10:06:38;;;;;;;;;64.75;53.50;;;;;12.38;75.11;-19542.31;4910274;28;45400;-92
2023/01/03 10:09:31;;;;;;;;;66.00;54.00;;;;;12.31;75.23;-19540.56;4914090;28;45479;-90
2023/01/03 10:11:56;;;;;;;;;66.00;54.50;;;;;12.36;75.30;-19541.91;4905862;28;48344;-91
2023/01/03 10:14:44;;;;;;;;;64.75;53.75;;;;;12.39;75.41;-19542.59;4933791;28;45836;-91
2023/01/03 10:17:29;;;;;;;;;62.25;51.00;;;;;12.40;75.06;-19542.84;4890193;28;45483;-89
2023/01/03 10:20:00;;;;;;;;;67.50;57.25;;;;;12.46;75.41;-19544.47;4899313;28;45601;-90
2023/01/03 10:22:27;;;;;;;;;60.50;50.75;;;;;11.88;75.01;-19529.25;4919310;28;46276;-88
2023/01/03 10:25:14;;;;;;;;;61.75;51.25;;;;;12.44;74.86;-19544.06;4917442;28;45442;-90
2023/01/03 10:27:50;;;;;;;;;62.75;51.75;;;;;12.29;75.03;-19540.03;4897332;28;45369;-89
2023/01/03 10:30:28;;;;;;;;;49.00;41.67;;;;;12.03;74.87;-19533.16;4902887;28;45494;-90
2023/01/03 10:33:12;;;;;;;;;63.25;52.25;;;;;12.63;74.59;-19549.03;4901645;28;47395;-90
2023/01/03 10:35:37;;;;;;;;;52.00;43.00;;;;;12.67;74.72;-19550.13;4901728;28;46357;-89
2023/01/03 10:38:03;;;;;;;;;48.67;40.33;;;;;12.06;74.27;-19533.81;4906246;28;45696;-84
2023/01/03 10:40:35;;;;;;;;;55.33;46.33;;;;;12.50;74.20;-19545.41;4898829;29;45503;-87
2023/01/03 10:43:08;;;;;;;;;49.00;42.00;;;;;12.65;74.33;-19549.59;4916275;28;47367;-87
2023/01/03 10:45:35;;;;;;;;;51.67;43.00;;;;;12.62;74.28;-19548.78;4918546;28;45411;-90
2023/01/03 10:48:01;;;;;;;;;45.33;39.33;;;;;11.98;73.68;-19531.94;4901673;28;45436;-90
2023/01/03 10:50:28;;;;;;;;;49.00;41.33;;;;;12.27;74.00;-19539.34;4919466;28;45462;-90
2023/01/03 10:53:00;;;;;;;;;44.33;38.67;;;;;12.60;73.69;-19548.25;4902349;28;48173;-92
2023/01/03 10:55:26;;;;;;;;;45.00;39.00;;;;;12.15;73.75;-19536.25;4902577;28;45349;-91
2023/01/03 10:57:51;;;;;;;;;41.25;35.50;;;;;12.68;73.97;-19550.25;4898983;28;45371;-91
2023/01/03 11:00:22;;;;;;;;;19.50;19.00;;;;;12.64;73.58;-19549.31;4898036;28;45406;-90
2023/01/03 11:02:48;;;;;;;;;45.00;38.33;;;;;12.56;73.99;-19547.16;4913908;28;45502;-90
2023/01/03 11:05:19;;;;;;;;;15.25;14.25;;;;;12.36;73.96;-19541.91;4893354;28;45491;-90
2023/01/03 11:07:54;;;;;;;;;27.50;27.25;;;;;12.18;74.02;-19537.06;4918563;28;45354;-90
2023/01/03 11:10:20;;;;;;;;;22.00;22.00;;;;;12.12;74.04;-19535.44;4898193;28;45442;-90
2023/01/03 11:12:45;;;;;;;;;16.25;16.25;;;;;12.80;73.61;-19553.47;4909249;28;45707;-90
2023/01/03 11:15:33;;;;;;;;;17.25;16.50;;;;;12.43;73.59;-19543.66;4899923;28;45437;-89
2023/01/03 11:18:02;;;;;;;;;11.33;10.00;;;;;12.52;72.96;-19546.09;4918098;28;45316;-89
2023/01/03 11:21:07;;;;;;;;;11.00;11.00;;;;;12.86;73.48;-19555.09;4918168;28;45649;-89
2023/01/03 11:23:58;;;;;;;;;6.33;6.33;;;;;13.07;72.80;-19560.63;4862891;29;45584;-89
2023/01/03 11:27:01;;;;;;;;;10.33;9.00;;;;;13.01;72.98;-19559.00;4864687;29;45409;-89
2023/01/03 11:29:37;;;;;;;;;8.00;6.67;;;;;13.28;72.56;-19566.00;4859833;29;45359;-89
2023/01/03 11:32:34;;;;;;;;;11.67;7.67;;;;;12.95;72.37;-19557.25;4863576;29;45541;-91
2023/01/03 11:35:17;;;;;;;;;5.67;5.67;;;;;13.25;72.41;-19565.19;4862503;29;48563;-90
2023/01/03 11:37:55;;;;;;;;;7.67;7.00;;;;;13.23;72.40;-19564.78;4862497;29;45495;-90
2023/01/03 11:40:59;;;;;;;;;8.00;7.00;;;;;13.19;72.80;-19563.56;4862203;29;45420;-90
2023/01/03 11:43:54;;;;;;;;;6.00;6.00;;;;;12.70;72.23;-19550.66;4861099;29;45490;-91
2023/01/03 11:46:25;;;;;;;;;7.00;7.00;;;;;13.10;72.37;-19561.28;4857042;29;47436;-90
2023/01/03 11:49:30;;;;;;;;;6.33;5.67;;;;;12.93;72.47;-19556.72;4861183;29;45534;-90
2023/01/03 11:52:14;;;;;;;;;7.33;7.00;;;;;13.13;72.34;-19561.97;4839126;29;45532;-90
2023/01/03 11:55:11;;;;;;;;;5.00;4.00;;;;;12.97;72.43;-19557.94;4863916;29;45456;-93
2023/01/03 11:57:49;;;;;;;;;6.00;4.67;;;;;12.91;72.36;-19556.31;4852099;29;48765;-90
2023/01/03 12:00:20;;;;;;;;;6.67;4.33;;;;;12.92;72.74;-19556.56;4878574;28;45694;-89
2023/01/03 12:02:51;;;;;;;;;6.00;4.33;;;;;12.94;72.57;-19557.13;4918233;28;45476;-90
2023/01/03 12:05:40;;;;;;;;;2.33;2.33;;;;;13.02;73.01;-19559.28;4904822;28;45553;-86
2023/01/03 12:08:07;;;;;;;;;3.00;3.00;;;;;13.09;72.45;-19561.03;4931786;28;47406;-90
2023/01/03 12:10:46;;;;;;;;;3.33;3.00;;;;;13.14;72.71;-19562.22;4920329;28;45439;-89
2023/01/03 12:13:42;;;;;;;;;5.00;5.00;;;;;12.82;72.09;-19553.88;4932313;28;45340;-90
2023/01/03 12:16:22;;;;;;;;;5.00;5.00;;;;;12.94;72.94;-19557.13;4899796;28;45396;-89
2023/01/03 12:18:53;;;;;;;;;1.33;1.33;;;;;13.36;71.97;-19568.00;4911124;28;45426;-90
2023/01/03 12:21:34;;;;;;;;;3.67;3.67;;;;;13.19;71.85;-19563.56;4902446;28;45437;-90
2023/01/03 12:24:17;;;;;;;;;3.67;3.67;;;;;13.49;71.74;-19571.50;4928725;28;45283;-89
2023/01/03 12:26:51;;;;;;;;;4.33;2.33;;;;;12.99;71.56;-19558.31;4919999;28;45450;-89
2023/01/03 12:29:22;;;;;;;;;5.67;2.67;;;;;13.39;71.27;-19568.81;4932262;28;46792;-90
2023/01/03 12:32:15;;;;;;;;;3.00;3.00;;;;;13.73;70.61;-19577.84;4909779;28;45433;-90
2023/01/03 12:35:00;;;;;;;;;5.33;3.33;;;;;13.47;70.80;-19571.09;4923273;28;45427;-88
2023/01/03 12:37:31;;;;;;;;;4.33;4.00;;;;;13.54;70.79;-19572.84;4914573;28;45405;-90
2023/01/03 12:40:07;;;;;;;;;4.67;3.67;;;;;13.60;69.96;-19574.47;4931247;28;45486;-90
2023/01/03 12:42:45;;;;;;;;;12.67;11.67;;;;;13.91;70.00;-19582.53;4917487;28;45402;-90
2023/01/03 12:45:26;;;;;;;;;9.67;9.67;;;;;13.98;70.28;-19584.41;4896375;28;45332;-90
2023/01/03 12:48:04;;;;;;;;;12.67;11.00;;;;;14.06;69.88;-19586.56;4920804;28;45547;-90
2023/01/03 12:50:35;;;;;;;;;16.00;13.67;;;;;13.66;70.13;-19575.94;4921740;28;47245;-90
2023/01/03 12:53:19;;;;;;;;;6.67;5.67;;;;;14.03;70.00;-19585.75;4895205;28;45786;-90
2023/01/03 12:56:16;;;;;;;;;12.00;11.00;;;;;14.05;70.08;-19586.16;4929398;28;45522;-90
2023/01/03 12:59:19;;;;;;;;;15.50;15.50;;;;;14.10;70.00;-19587.50;4921118;28;45408;-90
2023/01/03 13:01:52;;;;;;;;;25.00;24.25;;;;;13.69;70.00;-19576.75;4921326;28;46191;-90
2023/01/03 13:04:32;;;;;;;;;28.50;28.25;;;;;13.37;69.44;-19568.28;4928834;28;45560;-90
2023/01/03 13:07:17;;;;;;;;;25.75;25.75;;;;;13.99;69.88;-19584.56;4907892;28;45352;-92
2023/01/03 13:09:48;;;;;;;;;27.00;26.75;;;;;13.93;70.12;-19583.22;4909814;28;45501;-91
2023/01/03 13:12:17;;;;;;;;;11.33;11.00;;;;;13.58;70.42;-19573.78;4922186;28;47192;-91
2023/01/03 13:14:54;;;;;;;;;21.00;21.00;;;;;14.00;70.17;-19584.81;4920908;28;45495;-91
2023/01/03 13:17:23;;;;;;;;;24.75;24.75;;;;;13.08;69.98;-19560.75;4905610;28;45449;-90
2023/01/03 13:19:55;;;;;;;;;9.00;7.33;;;;;13.91;70.81;-19582.53;4921790;28;45479;-91
2023/01/03 13:22:33;;;;;;;;;7.33;6.33;;;;;13.91;70.58;-19582.53;4933163;28;45427;-90
2023/01/03 13:25:38;;;;;;;;;9.67;7.67;;;;;13.94;70.60;-19583.47;4919141;28;45746;-90
2023/01/03 13:28:18;;;;;;;;;5.33;4.00;;;;;13.91;70.65;-19582.53;4905397;28;45488;-90
2023/01/03 13:30:44;;;;;;;;;5.67;5.67;;;;;13.86;70.76;-19581.19;4935310;28;45506;-89
2023/01/03 13:33:09;;;;;;;;;5.00;4.67;;;;;13.76;70.82;-19578.50;4925449;28;45331;-89
2023/01/03 13:35:41;;;;;;;;;3.67;2.67;;;;;13.65;71.20;-19575.81;4904468;28;45832;-89
2023/01/03 13:38:34;;;;;;;;;2.00;2.00;;;;;13.65;71.58;-19575.81;4921723;28;45401;-89
2023/01/03 13:41:30;;;;;;;;;3.33;3.33;;;;;13.56;71.69;-19573.41;4911607;28;45537;-88
2023/01/03 13:44:14;;;;;;;;;5.67;2.33;;;;;13.58;71.86;-19573.78;4906975;28;45588;-89
2023/01/03 13:46:41;;;;;;;;;4.33;4.33;;;;;13.05;71.57;-19560.06;4923485;28;45400;-89
2023/01/03 13:49:13;;;;;;;;;2.67;2.67;;;;;13.55;71.83;-19573.00;4925052;28;45564;-89
2023/01/03 13:51:39;;;;;;;;;4.67;4.67;;;;;13.52;72.36;-19572.44;4913397;28;45368;-89
2023/01/03 13:54:04;;;;;;;;;2.67;2.67;;;;;13.44;72.11;-19570.31;4932287;28;46076;-89
2023/01/03 13:56:51;;;;;;;;;5.00;5.00;;;;;12.64;72.41;-19549.31;4932319;28;45481;-89
2023/01/03 13:59:43;;;;;;;;;3.00;3.00;;;;;13.37;72.69;-19568.28;4923965;28;45468;-89
2023/01/03 14:02:21;;;;;;;;;6.00;5.00;;;;;13.39;72.92;-19568.81;4904643;28;45625;-89
2023/01/03 14:05:08;;;;;;;;;6.67;5.00;;;;;13.38;73.07;-19568.69;4907664;28;47575;-89
2023/01/03 14:08:02;;;;;;;;;4.00;3.33;;;;;12.53;72.90;-19546.34;4923733;28;45457;-89
2023/01/03 14:10:36;;;;;;;;;3.33;3.33;;;;;12.95;73.07;-19557.25;4916999;28;45433;-88
2023/01/03 14:13:08;;;;;;;;;3.33;3.33;;;;;13.30;73.15;-19566.53;4911008;28;45614;-88
2023/01/03 14:15:33;;;;;;;;;7.33;5.00;;;;;13.32;73.26;-19567.06;4920648;28;46715;-88
2023/01/03 14:18:13;;;;;;;;;3.00;2.33;;;;;12.90;72.95;-19556.03;4923706;28;45358;-89